Crazy Horse, South Dakota
Current Conditions -  °F | °C
As of 3:53 AM on Wednesday 22 Oct 2014 (Local Time) from KCUT Reporting Station
Clear Clear  
Wind Chill: 52°   Ceiling: Unl
Heat Index: 52°   Visibility: 10mi
Dew Point: 37°   Wind: 8mph
Humidity: 57%   Direction: 100°E
Pressure: 29.95"   Gusts: NA
Location:  43.6653°N, 103.766°W
Report Text: KCUT 220953Z AUTO 10007KT 10SM CLR 11/03 A2995 RMK AO2 SLP084 T01110028
Loading
Personal Weather Stations






























Interactive Weather Map
Tropical Storm Tracking
New forecast layout! Learn more

10-Day Weather Forecast

Advertisements
Track Severe Weather on mobile